createdAt,value
2019-01-25T00:03:10.224Z,74.48
2019-01-25T00:07:14.668Z,73.68
2019-01-25T00:11:19.537Z,74.23
2019-01-25T00:15:24.460Z,73.35
2019-01-25T00:19:29.656Z,73.60
2019-01-25T00:23:34.676Z,73.24
2019-01-25T00:27:39.946Z,75.63
2019-01-25T00:31:44.878Z,75.00
2019-01-25T00:35:49.805Z,72.50
2019-01-25T00:39:54.814Z,74.54
2019-01-25T00:43:59.759Z,73.73
2019-01-25T00:48:05.001Z,73.10
2019-01-25T00:52:09.930Z,72.88
2019-01-25T00:56:14.855Z,73.17
2019-01-25T01:00:23.234Z,73.43
2019-01-25T01:04:28.263Z,73.46
2019-01-25T01:08:33.578Z,73.48
2019-01-25T01:12:38.548Z,73.14
2019-01-25T01:16:43.514Z,73.77
2019-01-25T01:20:48.426Z,73.27
2019-01-25T01:24:53.399Z,74.18
2019-01-25T01:28:58.323Z,73.06
2019-01-25T01:33:03.279Z,73.23
2019-01-25T01:37:08.282Z,72.71
2019-01-25T01:41:13.215Z,72.83
2019-01-25T01:45:18.184Z,73.31
2019-01-25T01:49:26.950Z,73.24
2019-01-25T01:53:31.882Z,72.79
2019-01-25T01:57:36.823Z,73.90
2019-01-25T02:01:42.046Z,73.53
2019-01-25T02:05:46.955Z,72.60
2019-01-25T02:09:52.002Z,72.61
2019-01-25T02:13:57.006Z,72.37
2019-01-25T02:18:01.944Z,72.37
2019-01-25T02:22:06.995Z,72.84
2019-01-25T02:26:11.901Z,72.90
2019-01-25T02:30:20.025Z,72.73
2019-01-25T02:34:25.263Z,72.99
2019-01-25T02:38:30.261Z,72.85
2019-01-25T02:42:35.188Z,73.45
2019-01-25T02:46:40.122Z,73.24
2019-01-25T02:50:45.055Z,73.51
2019-01-25T02:54:50.348Z,73.41
2019-01-25T02:58:55.277Z,73.82
2019-01-25T03:03:00.221Z,73.91
2019-01-25T03:07:05.146Z,73.86
2019-01-25T03:11:10.213Z,75.13
2019-01-25T03:15:18.249Z,74.64
2019-01-25T03:19:23.209Z,74.52
2019-01-25T03:23:28.428Z,74.63
2019-01-25T03:27:33.369Z,74.87
2019-01-25T03:31:38.320Z,75.07
2019-01-25T03:35:43.249Z,75.28
2019-01-25T03:39:48.260Z,75.54
2019-01-25T03:43:53.177Z,75.58
2019-01-25T03:47:58.200Z,75.52
2019-01-25T03:52:03.123Z,75.65
2019-01-25T03:56:08.067Z,75.66
2019-01-25T04:00:16.601Z,76.44
2019-01-25T04:04:21.545Z,75.73
2019-01-25T04:08:26.478Z,76.26
2019-01-25T04:12:31.429Z,76.38
2019-01-25T04:16:36.346Z,76.28
2019-01-25T04:20:41.386Z,75.73
2019-01-25T04:24:46.297Z,76.31
2019-01-25T04:28:51.612Z,75.74
2019-01-25T04:32:56.525Z,75.90
2019-01-25T04:37:01.467Z,76.14
2019-01-25T04:41:11.490Z,76.80
2019-01-25T04:45:15.726Z,76.80
2019-01-25T04:49:20.754Z,77.06
2019-01-25T04:53:25.676Z,77.36
2019-01-25T04:57:30.661Z,76.50
2019-01-25T05:01:35.575Z,76.02
2019-01-25T05:05:40.564Z,76.55
2019-01-25T05:09:45.814Z,77.20
2019-01-25T05:13:50.710Z,76.98
2019-01-25T05:17:55.984Z,76.80
2019-01-25T05:22:00.911Z,77.21
2019-01-25T05:26:05.808Z,77.10
2019-01-25T05:30:12.160Z,77.30
2019-01-25T05:34:17.045Z,78.14
2019-01-25T05:38:22.011Z,78.01
2019-01-25T05:42:26.934Z,77.82
2019-01-25T05:46:31.863Z,78.34
2019-01-25T05:50:36.787Z,78.45
2019-01-25T05:54:44.143Z,78.21
2019-01-25T05:58:49.241Z,77.98
2019-01-25T06:02:54.207Z,78.32
2019-01-25T06:06:59.169Z,78.45
2019-01-25T06:11:14.635Z,80.03
2019-01-25T06:15:19.654Z,79.41
2019-01-25T06:19:24.557Z,80.48
2019-01-25T06:23:29.585Z,80.71
2019-01-25T06:27:38.225Z,80.39
2019-01-25T06:31:43.322Z,80.15
2019-01-25T06:35:48.227Z,80.24
2019-01-25T06:39:53.237Z,81.36
2019-01-25T06:43:58.411Z,80.70
2019-01-25T06:48:03.430Z,81.73
2019-01-25T06:52:08.358Z,81.51
2019-01-25T06:56:13.508Z,81.94
2019-01-25T07:00:20.710Z,82.06
2019-01-25T07:04:25.664Z,82.03
2019-01-25T07:08:30.573Z,82.05
2019-01-25T07:12:35.459Z,82.19
2019-01-25T07:16:40.832Z,82.27
2019-01-25T07:20:46.067Z,81.41
2019-01-25T07:24:57.195Z,81.53
2019-01-25T07:28:57.590Z,81.11
2019-01-25T07:33:03.027Z,81.56
2019-01-25T07:37:07.963Z,82.69
2019-01-25T07:41:12.875Z,82.63
2019-01-25T07:45:17.842Z,82.59
2019-01-25T07:49:23.043Z,82.74
2019-01-25T07:53:27.979Z,82.02
2019-01-25T07:57:32.992Z,82.12
2019-01-25T08:01:38.257Z,81.59
2019-01-25T08:05:43.201Z,82.50
2019-01-25T08:09:48.083Z,81.99
2019-01-25T08:13:53.004Z,81.91
2019-01-25T08:17:57.926Z,81.78
2019-01-25T08:22:02.812Z,81.32
2019-01-25T08:26:07.799Z,81.16
2019-01-25T08:30:14.395Z,81.33
2019-01-25T08:34:19.404Z,81.20
2019-01-25T08:38:24.334Z,80.88
2019-01-25T08:42:29.289Z,80.69
2019-01-25T08:46:35.096Z,80.77
2019-01-25T08:50:40.097Z,80.65
2019-01-25T08:54:44.999Z,80.03
2019-01-25T08:58:49.915Z,80.17
2019-01-25T09:02:54.818Z,79.88
2019-01-25T09:06:59.723Z,79.58
2019-01-25T09:11:04.634Z,79.60
2019-01-25T09:15:13.409Z,79.36
2019-01-25T09:19:18.324Z,78.92
2019-01-25T09:23:23.219Z,79.09
2019-01-25T09:27:28.117Z,78.96
2019-01-25T09:31:33.025Z,79.20
2019-01-25T09:35:37.949Z,79.12
2019-01-25T09:39:42.841Z,78.72
2019-01-25T09:43:47.844Z,78.50
2019-01-25T09:47:52.760Z,78.86
2019-01-25T09:51:57.683Z,78.69
2019-01-25T09:56:02.595Z,78.22
2019-01-25T10:00:19.794Z,78.32
2019-01-25T10:04:24.677Z,78.27
2019-01-25T10:08:29.602Z,77.93
2019-01-25T10:12:38.837Z,77.99
2019-01-25T10:16:41.136Z,78.28
2019-01-25T10:20:46.030Z,77.81
2019-01-25T10:24:50.938Z,78.02
2019-01-25T10:28:55.869Z,77.84
2019-01-25T10:33:00.780Z,78.09
2019-01-25T10:37:05.843Z,77.72
2019-01-25T10:41:10.739Z,77.99
2019-01-25T10:45:25.344Z,77.97
2019-01-25T10:49:30.264Z,78.57
2019-01-25T10:53:35.144Z,78.89
2019-01-25T10:57:40.103Z,78.57
2019-01-25T11:01:44.995Z,78.83
2019-01-25T11:05:50.081Z,79.03
2019-01-25T11:09:54.981Z,79.13
2019-01-25T11:13:59.907Z,78.82
2019-01-25T11:18:05.297Z,78.47
2019-01-25T11:22:10.198Z,78.53
2019-01-25T11:26:15.095Z,78.48
2019-01-25T11:30:20.108Z,78.46
2019-01-25T11:34:25.037Z,77.93
2019-01-25T11:38:29.938Z,77.67
2019-01-25T11:42:34.855Z,77.29
2019-01-25T11:46:40.045Z,77.17
2019-01-25T11:50:44.986Z,77.03
2019-01-25T11:54:50.490Z,76.88
2019-01-25T11:58:55.470Z,76.34
2019-01-25T12:03:00.442Z,76.63
2019-01-25T12:07:05.345Z,75.91
2019-01-25T12:11:10.279Z,75.71
2019-01-25T12:15:16.915Z,74.73
2019-01-25T12:19:21.785Z,74.89
2019-01-25T12:23:26.716Z,74.39
2019-01-25T12:27:31.651Z,75.32
2019-01-25T12:31:37.274Z,75.24
2019-01-25T12:35:44.450Z,74.91
2019-01-25T12:39:49.467Z,74.53
2019-01-25T12:43:54.460Z,74.06
2019-01-25T12:47:59.819Z,74.21
2019-01-25T12:52:09.899Z,72.97
2019-01-25T12:56:14.786Z,73.52
2019-01-25T13:00:23.700Z,72.94
2019-01-25T13:04:28.671Z,72.22
2019-01-25T13:08:33.669Z,72.08
2019-01-25T13:12:38.563Z,72.10
2019-01-25T13:16:43.698Z,71.82
2019-01-25T13:20:48.960Z,71.40
2019-01-25T13:24:53.900Z,71.28
2019-01-25T13:28:58.775Z,71.12
2019-01-25T13:33:03.757Z,71.83
2019-01-25T13:37:08.993Z,71.45
2019-01-25T13:41:13.903Z,71.64
2019-01-25T13:45:19.587Z,71.75
2019-01-25T13:49:24.495Z,71.86
2019-01-25T13:53:29.433Z,71.69
2019-01-25T13:57:34.308Z,72.14
2019-01-25T14:01:39.236Z,72.10
2019-01-25T14:05:44.371Z,71.79
2019-01-25T14:09:49.716Z,71.68
2019-01-25T14:13:54.685Z,72.01
2019-01-25T14:17:59.659Z,71.96
2019-01-25T14:22:04.596Z,71.75
2019-01-25T14:26:09.523Z,71.83
2019-01-25T14:30:50.517Z,71.71
2019-01-25T14:34:55.824Z,72.14
2019-01-25T14:39:00.808Z,71.88
2019-01-25T14:43:05.801Z,72.02
2019-01-25T14:47:10.730Z,72.51
2019-01-25T14:51:15.788Z,72.37
2019-01-25T14:55:20.788Z,72.99
2019-01-25T14:59:25.978Z,72.72
2019-01-25T15:03:30.996Z,72.87
2019-01-25T15:07:35.913Z,72.81
2019-01-25T15:11:40.821Z,72.82
2019-01-25T15:15:45.950Z,72.69
2019-01-25T15:19:51.199Z,72.78
2019-01-25T15:23:56.075Z,73.50
2019-01-25T15:28:00.976Z,73.69
2019-01-25T15:32:06.095Z,73.93
2019-01-25T15:36:11.684Z,75.31
2019-01-25T15:40:17.340Z,77.05
2019-01-25T15:44:22.325Z,78.29
2019-01-25T15:48:28.919Z,79.45
2019-01-25T15:52:33.859Z,80.21
2019-01-25T15:56:38.817Z,81.09
2019-01-25T16:00:44.102Z,81.46
2019-01-25T16:04:49.103Z,82.05
2019-01-25T16:08:54.283Z,82.56
2019-01-25T16:12:59.324Z,83.00
2019-01-25T16:17:04.342Z,83.20
2019-01-25T16:21:09.289Z,83.66
2019-01-25T16:25:27.118Z,83.97
2019-01-25T16:29:32.077Z,84.11
2019-01-25T16:33:37.347Z,84.56
2019-01-25T16:37:42.390Z,84.70
2019-01-25T16:41:47.452Z,85.03
2019-01-25T16:45:52.493Z,85.33
2019-01-25T16:49:57.541Z,84.98
2019-01-25T16:54:02.582Z,85.27
2019-01-25T16:58:08.113Z,85.47
2019-01-25T17:02:13.094Z,85.63
2019-01-25T17:06:18.019Z,85.71
2019-01-25T17:10:23.032Z,85.67
2019-01-25T17:14:33.350Z,85.78
2019-01-25T17:18:35.139Z,85.71
2019-01-25T17:22:40.096Z,85.76
2019-01-25T17:26:44.997Z,85.99
2019-01-25T17:30:50.334Z,86.02
2019-01-25T17:34:55.513Z,86.18
2019-01-25T17:39:00.470Z,86.28
2019-01-25T17:43:05.542Z,86.34
2019-01-25T17:47:10.494Z,86.45
2019-01-25T17:51:15.489Z,86.42
2019-01-25T17:55:20.384Z,86.47
2019-01-25T17:59:26.263Z,86.51
2019-01-25T18:03:31.274Z,86.47
2019-01-25T18:07:36.201Z,86.48
2019-01-25T18:11:41.703Z,86.57
2019-01-25T18:15:46.713Z,86.49
2019-01-25T18:19:52.543Z,86.69
2019-01-25T18:23:59.449Z,86.67
2019-01-25T18:28:05.502Z,86.79
2019-01-25T18:32:10.614Z,86.69
2019-01-25T18:36:15.627Z,86.71
2019-01-25T18:40:21.076Z,86.78
2019-01-25T18:44:25.965Z,86.68
2019-01-25T18:48:30.891Z,86.83
2019-01-25T18:52:36.231Z,86.71
2019-01-25T18:56:42.202Z,86.68
2019-01-25T19:00:47.117Z,86.84
2019-01-25T19:04:52.027Z,86.79
2019-01-25T19:08:56.975Z,86.76
2019-01-25T19:13:01.901Z,86.95
2019-01-25T19:17:06.801Z,86.97
2019-01-25T19:21:11.749Z,86.92
2019-01-25T19:25:16.752Z,86.89
2019-01-25T19:29:21.673Z,86.88
2019-01-25T19:33:26.663Z,87.11
2019-01-25T19:37:31.654Z,87.13
2019-01-25T19:41:36.565Z,87.21
2019-01-25T19:45:41.631Z,87.28
2019-01-25T19:49:46.553Z,87.32
2019-01-25T19:53:51.618Z,87.37
2019-01-25T19:57:56.978Z,87.41
2019-01-25T20:02:02.197Z,87.37
2019-01-25T20:06:07.098Z,87.40
2019-01-25T20:10:12.286Z,87.44
2019-01-25T20:14:17.368Z,87.47
2019-01-25T20:18:22.661Z,87.51
2019-01-25T20:22:27.822Z,87.56
2019-01-25T20:26:32.901Z,87.53
2019-01-25T20:30:37.985Z,87.55
2019-01-25T20:34:42.954Z,87.66
2019-01-25T20:38:47.935Z,87.69
2019-01-25T20:42:52.881Z,87.79
2019-01-25T20:46:57.774Z,87.86
2019-01-25T20:51:03.098Z,87.94
2019-01-25T20:55:09.907Z,87.97
2019-01-25T20:59:14.807Z,88.00
2019-01-25T21:03:19.821Z,88.07
2019-01-25T21:07:27.840Z,88.09
2019-01-25T21:11:32.811Z,88.08
2019-01-25T21:15:37.868Z,88.09
2019-01-25T21:19:42.801Z,88.12
2019-01-25T21:23:47.803Z,88.13
2019-01-25T21:27:52.712Z,88.15
2019-01-25T21:31:57.634Z,88.06
2019-01-25T21:36:02.594Z,88.05
2019-01-25T21:40:10.827Z,88.08
2019-01-25T21:44:15.824Z,87.99
2019-01-25T21:48:20.755Z,87.98
2019-01-25T21:52:25.795Z,87.94
2019-01-25T21:56:30.825Z,88.00
2019-01-25T22:00:35.945Z,88.00
2019-01-25T22:04:41.188Z,87.90
2019-01-25T22:08:46.181Z,87.94
2019-01-25T22:12:51.211Z,87.97
2019-01-25T22:16:56.490Z,88.09
2019-01-25T22:21:01.379Z,88.19
2019-01-25T22:25:07.268Z,88.26
2019-01-25T22:29:12.184Z,88.25
2019-01-25T22:33:17.191Z,88.22
2019-01-25T22:37:23.900Z,88.26
2019-01-25T22:41:28.691Z,88.21
2019-01-25T22:45:33.627Z,88.22
2019-01-25T22:49:38.559Z,88.26
2019-01-25T22:53:43.805Z,88.34
2019-01-25T22:57:48.690Z,88.33
2019-01-25T23:01:53.611Z,88.30
2019-01-25T23:06:33.948Z,88.29
2019-01-25T23:10:39.192Z,88.20
2019-01-25T23:14:44.091Z,88.29
2019-01-25T23:18:49.009Z,88.28
2019-01-25T23:22:53.927Z,88.30
2019-01-25T23:26:58.887Z,88.32
2019-01-25T23:31:03.817Z,88.33
2019-01-25T23:35:08.693Z,88.37
2019-01-25T23:39:13.675Z,88.38
2019-01-25T23:43:18.560Z,88.39
2019-01-25T23:47:25.182Z,88.40
2019-01-25T23:51:30.153Z,88.44
2019-01-25T23:55:35.231Z,88.47
2019-01-25T23:59:40.135Z,88.50
